KBAF

Westfield-Barnes Regional Airport

Westfield/Springfield, Massachusetts, USA
KBAF 162320Z 1700/1724 30010KT P6SM -SN BKN045 FM170300 30012G25KT P6SM SCT045 FM170600 32009KT P6SM SKC FM171700 00000KT P6SM FEW140 FM172000 18003KT P6SM BKN120
Issued Valid From Valid To
Jan-16 @ 23:20 UTC
(6 hours ago)
Jan-17 @ 00:00 UTC
(5 hours ago)
Jan-18 @ 00:00 UTC
(in 19 hours)
Expired Click to View Jan-17 @ 00:00 to Jan-17 @ 03:00
KBAF 162320Z 1700/1724 30010KT P6SM -SN BKN045
Wind Visibility Clouds Conditions
300° at 10 knots Greater than 6 miles
  • Broken at 4,500' AGL
  • Light Snow
From Jan-17 @ 03:00 to Jan-17 @ 06:00
FM170300 30012G25KT P6SM SCT045
Wind Visibility Clouds
300° at 12 knots
 Gusting to 25 knots
Greater than 6 miles
  • Scattered at 4,500' AGL
From Jan-17 @ 06:00 to Jan-17 @ 17:00
FM170600 32009KT P6SM SKC
Wind Visibility Clouds
320° at 9 knots Greater than 6 miles
  • Clear skies
From Jan-17 @ 17:00 to Jan-17 @ 20:00
FM171700 00000KT P6SM FEW140
Visibility Clouds
Greater than 6 miles
  • Few at 14,000' AGL
From Jan-17 @ 20:00 to Jan-18 @ 00:00
FM172000 18003KT P6SM BKN120
Wind Visibility Clouds
180° at 3 knots Greater than 6 miles
  • Broken at 12,000' AGL
KBAF 162320Z 1700/1724 30010KT P6SM -SN BKN045 FM170300 30012G25KT P6SM SCT045 FM170600 32009KT P6SM SKC FM171700 00000KT P6SM FEW140 FM172000 18003KT P6SM BKN120
Issued Jan-16 @ 23:20 UTC
(6 hours ago)
Valid From Jan-17 @ 00:00 UTC
(5 hours ago)
Valid To Jan-18 @ 00:00 UTC
(in 19 hours)
Jan-17 @ 00:00 - Jan-17 @ 03:00
Wind Visibility
300° at 10 knots Greater than 6 miles
Clouds
  • Broken at 4,500' AGL
Conditions
  • Light Snow
From Jan-17 @ 03:00 - Jan-17 @ 06:00
Wind Visibility
300° at 12 knots
 Gusting to 25 knots
Greater than 6 miles
Clouds
  • Scattered at 4,500' AGL
From Jan-17 @ 06:00 - Jan-17 @ 17:00
Wind Visibility
320° at 9 knots Greater than 6 miles
Clouds
  • Clear skies
From Jan-17 @ 17:00 - Jan-17 @ 20:00
Clouds
  • Few at 14,000' AGL
From Jan-17 @ 20:00 - Jan-18 @ 00:00
Wind Visibility
180° at 3 knots Greater than 6 miles
Clouds
  • Broken at 12,000' AGL